createdAt,value
2019-03-16T00:02:50.308Z,68.89
2019-03-16T00:08:56.138Z,69.04
2019-03-16T00:15:02.260Z,69.24
2019-03-16T00:21:08.010Z,69.78
2019-03-16T00:27:13.906Z,70.53
2019-03-16T00:33:19.722Z,70.67
2019-03-16T00:39:25.516Z,71.20
2019-03-16T00:45:31.884Z,72.04
2019-03-16T00:51:37.726Z,72.32
2019-03-16T00:57:43.583Z,72.19
2019-03-16T01:03:49.315Z,67.67
2019-03-16T01:09:55.046Z,66.08
2019-03-16T01:16:00.840Z,65.50
2019-03-16T01:22:06.718Z,65.13
2019-03-16T01:28:12.532Z,64.81
2019-03-16T01:34:18.342Z,64.54
2019-03-16T01:40:24.200Z,63.33
2019-03-16T01:46:30.005Z,62.20
2019-03-16T01:52:35.805Z,62.19
2019-03-16T01:58:41.620Z,61.78
2019-03-16T02:04:47.329Z,61.88
2019-03-16T02:10:53.238Z,61.41
2019-03-16T02:16:59.209Z,61.35
2019-03-16T02:23:05.082Z,61.84
2019-03-16T02:29:11.189Z,62.21
2019-03-16T02:35:17.025Z,62.27
2019-03-16T02:41:23.051Z,62.69
2019-03-16T02:47:28.823Z,63.39
2019-03-16T02:53:34.589Z,64.12
2019-03-16T02:59:40.337Z,64.58
2019-03-16T03:05:46.176Z,65.17
2019-03-16T03:11:51.926Z,65.81
2019-03-16T03:17:57.649Z,66.46
2019-03-16T03:24:03.447Z,66.99
2019-03-16T03:30:10.110Z,67.49
2019-03-16T03:36:15.895Z,67.85
2019-03-16T03:42:21.677Z,68.43
2019-03-16T03:48:27.692Z,68.97
2019-03-16T03:54:33.495Z,69.49
2019-03-16T04:00:39.340Z,70.13
2019-03-16T04:06:45.213Z,70.76
2019-03-16T04:12:50.984Z,71.39
2019-03-16T04:18:56.701Z,71.84
2019-03-16T04:25:02.558Z,71.96
2019-03-16T04:31:08.335Z,72.29
2019-03-16T04:37:14.393Z,72.76
2019-03-16T04:43:20.175Z,73.26
2019-03-16T04:49:26.213Z,73.66
2019-03-16T04:55:31.974Z,74.10
2019-03-16T05:01:37.675Z,74.36
2019-03-16T05:07:43.447Z,74.63
2019-03-16T05:13:49.248Z,74.81
2019-03-16T05:19:55.007Z,74.86
2019-03-16T05:26:00.749Z,75.03
2019-03-16T05:32:06.763Z,75.18
2019-03-16T05:38:12.462Z,75.09
2019-03-16T05:44:18.222Z,75.24
2019-03-16T05:50:23.896Z,75.31
2019-03-16T05:56:29.654Z,75.30
2019-03-16T06:02:35.501Z,75.18
2019-03-16T06:08:41.314Z,74.99
2019-03-16T06:14:47.042Z,74.97
2019-03-16T06:20:52.860Z,74.84
2019-03-16T06:26:58.714Z,74.80
2019-03-16T06:33:04.512Z,74.87
2019-03-16T06:39:10.406Z,74.91
2019-03-16T06:45:17.109Z,74.77
2019-03-16T06:51:23.286Z,74.83
2019-03-16T06:57:29.037Z,74.94
2019-03-16T07:03:34.903Z,74.78
2019-03-16T07:09:40.978Z,74.71
2019-03-16T07:15:46.999Z,74.68
2019-03-16T07:21:52.819Z,74.86
2019-03-16T07:27:58.608Z,75.03
2019-03-16T07:34:04.454Z,75.31
2019-03-16T07:40:10.636Z,75.55
2019-03-16T07:46:16.518Z,75.74
2019-03-16T07:52:22.379Z,76.13
2019-03-16T07:58:28.247Z,76.13
2019-03-16T08:04:33.991Z,75.75
2019-03-16T08:10:40.307Z,75.14
2019-03-16T08:16:46.423Z,74.61
2019-03-16T08:22:52.499Z,74.11
2019-03-16T08:28:59.314Z,73.83
2019-03-16T08:35:05.580Z,73.21
2019-03-16T08:41:11.299Z,72.87
2019-03-16T08:47:17.559Z,72.43
2019-03-16T08:53:23.445Z,72.48
2019-03-16T08:59:29.233Z,72.14
2019-03-16T09:05:35.139Z,72.29
2019-03-16T09:11:41.021Z,72.03
2019-03-16T09:17:47.032Z,71.39
2019-03-16T09:23:52.839Z,70.98
2019-03-16T09:29:58.647Z,69.93
2019-03-16T09:36:04.449Z,69.54
2019-03-16T09:42:09.625Z,68.30
2019-03-16T09:48:15.565Z,67.08
2019-03-16T09:54:21.321Z,66.92
2019-03-16T10:00:27.156Z,67.01
2019-03-16T10:06:33.232Z,67.17
2019-03-16T10:12:39.030Z,66.43
2019-03-16T10:18:45.021Z,66.72
2019-03-16T10:24:50.907Z,66.57
2019-03-16T10:30:56.794Z,65.95
2019-03-16T10:37:02.582Z,65.38
2019-03-16T10:43:08.560Z,64.59
2019-03-16T10:49:14.398Z,63.71
2019-03-16T10:55:20.188Z,62.70
2019-03-16T11:01:26.234Z,60.97
2019-03-16T11:07:32.238Z,60.09
2019-03-16T11:13:38.093Z,59.58
2019-03-16T11:19:43.935Z,59.56
2019-03-16T11:25:50.016Z,59.21
2019-03-16T11:31:55.915Z,59.71
2019-03-16T11:38:01.644Z,59.80
2019-03-16T11:44:07.372Z,59.66
2019-03-16T11:50:13.321Z,59.63
2019-03-16T11:56:19.108Z,59.25
2019-03-16T12:02:24.859Z,59.56
2019-03-16T12:08:32.447Z,59.92
2019-03-16T12:14:38.275Z,60.14
2019-03-16T12:20:44.211Z,59.99
2019-03-16T12:26:49.966Z,59.57
2019-03-16T12:32:55.761Z,59.44
2019-03-16T12:39:01.642Z,59.64
2019-03-16T12:45:10.938Z,59.72
2019-03-16T12:51:16.970Z,60.00
2019-03-16T12:57:22.744Z,60.14
2019-03-16T13:03:28.576Z,60.47
2019-03-16T13:09:34.401Z,60.52
2019-03-16T13:15:40.210Z,60.55
2019-03-16T13:21:46.050Z,60.16
2019-03-16T13:27:51.783Z,60.14
2019-03-16T13:33:57.835Z,60.14
2019-03-16T13:40:03.670Z,59.51
2019-03-16T13:46:10.178Z,58.65
2019-03-16T13:52:16.067Z,58.56
2019-03-16T13:58:21.794Z,58.12
2019-03-16T14:04:27.578Z,57.30
2019-03-16T14:10:33.312Z,56.45
2019-03-16T14:16:39.199Z,56.08
2019-03-16T14:22:47.464Z,56.16
2019-03-16T14:28:53.454Z,56.57
2019-03-16T14:34:59.214Z,57.52
2019-03-16T14:41:05.142Z,57.81
2019-03-16T14:47:10.861Z,57.78
2019-03-16T14:53:16.919Z,57.37
2019-03-16T14:59:22.762Z,57.11
2019-03-16T15:05:28.675Z,57.30
2019-03-16T15:11:34.501Z,57.51
2019-03-16T15:17:40.419Z,57.62
2019-03-16T15:23:46.301Z,57.61
2019-03-16T15:29:52.362Z,57.77
2019-03-16T15:35:58.212Z,57.11
2019-03-16T15:42:04.004Z,56.53
2019-03-16T15:48:09.777Z,55.98
2019-03-16T15:54:15.659Z,55.16
2019-03-16T16:00:21.618Z,55.00
2019-03-16T16:06:27.388Z,54.67
2019-03-16T16:12:33.448Z,54.85
2019-03-16T16:18:39.286Z,54.49
2019-03-16T16:24:45.029Z,54.74
2019-03-16T16:30:50.988Z,54.83
2019-03-16T16:36:56.752Z,55.07
2019-03-16T16:43:02.502Z,55.41
2019-03-16T16:49:08.335Z,55.93
2019-03-16T16:55:15.544Z,56.23
2019-03-16T17:01:29.332Z,56.54
2019-03-16T17:07:28.851Z,56.47
2019-03-16T17:13:34.680Z,56.69
2019-03-16T17:19:40.538Z,56.57
2019-03-16T17:25:46.404Z,56.68
2019-03-16T17:31:52.258Z,56.54
2019-03-16T17:37:58.150Z,55.92
2019-03-16T17:44:04.088Z,56.09
2019-03-16T17:50:10.372Z,56.01
2019-03-16T17:56:16.200Z,55.94
2019-03-16T18:02:21.959Z,56.07
2019-03-16T18:08:27.687Z,56.44
2019-03-16T18:14:37.555Z,56.38
2019-03-16T18:20:43.455Z,56.48
2019-03-16T18:26:49.215Z,56.41
2019-03-16T18:32:55.057Z,56.37
2019-03-16T18:39:00.895Z,56.46
2019-03-16T18:45:08.190Z,56.46
2019-03-16T18:51:13.929Z,56.43
2019-03-16T18:57:20.074Z,56.32
2019-03-16T19:03:25.866Z,56.34
2019-03-16T19:09:33.018Z,56.32
2019-03-16T19:15:38.769Z,56.36
2019-03-16T19:21:44.488Z,56.19
2019-03-16T19:27:50.306Z,56.02
2019-03-16T19:33:56.081Z,56.10
2019-03-16T19:40:01.924Z,55.79
2019-03-16T19:46:07.896Z,55.78
2019-03-16T19:52:13.752Z,56.02
2019-03-16T19:58:19.690Z,55.89
2019-03-16T20:04:35.344Z,56.04
2019-03-16T20:10:33.007Z,56.29
2019-03-16T20:16:38.856Z,56.35
2019-03-16T20:22:44.691Z,56.49
2019-03-16T20:28:50.739Z,56.66
2019-03-16T20:34:56.522Z,56.72
2019-03-16T20:41:02.299Z,56.83
2019-03-16T20:47:08.056Z,56.88
2019-03-16T20:53:13.852Z,57.07
2019-03-16T20:59:19.691Z,57.12
2019-03-16T21:05:25.507Z,57.26
2019-03-16T21:11:31.306Z,57.30
2019-03-16T21:17:37.082Z,57.24
2019-03-16T21:23:42.829Z,57.45
2019-03-16T21:29:48.655Z,57.53
2019-03-16T21:35:54.645Z,57.64
2019-03-16T21:42:00.392Z,57.84
2019-03-16T21:48:06.310Z,57.78
2019-03-16T21:54:12.142Z,57.96
2019-03-16T22:00:18.084Z,58.06
2019-03-16T22:06:23.869Z,58.23
2019-03-16T22:12:29.572Z,58.24
2019-03-16T22:18:35.372Z,58.24
2019-03-16T22:24:42.421Z,58.48
2019-03-16T22:30:48.201Z,58.45
2019-03-16T22:36:54.023Z,58.45
2019-03-16T22:42:59.873Z,58.49
2019-03-16T22:49:05.787Z,58.52
2019-03-16T22:55:11.602Z,58.26
2019-03-16T23:01:17.555Z,58.33
2019-03-16T23:07:23.648Z,58.51
2019-03-16T23:13:29.409Z,58.32
2019-03-16T23:19:35.202Z,58.24
2019-03-16T23:25:40.991Z,58.07
2019-03-16T23:31:46.764Z,57.84
2019-03-16T23:37:52.570Z,57.72
2019-03-16T23:43:58.566Z,57.87
2019-03-16T23:50:04.404Z,57.74
2019-03-16T23:56:10.163Z,57.61
